sensor_id;sensor_type;location;lat;lon;timestamp;P1;durP1;ratioP1;P2;durP2;ratioP2
76854;SDS011;66343;44.588;33.450;2023-05-23T00:00:58;7.78;;;3.97;;
76854;SDS011;66343;44.588;33.450;2023-05-23T00:03:31;8.30;;;3.85;;
76854;SDS011;66343;44.588;33.450;2023-05-23T00:06:14;10.63;;;3.90;;
76854;SDS011;66343;44.588;33.450;2023-05-23T00:08:56;7.95;;;3.63;;
76854;SDS011;66343;44.588;33.450;2023-05-23T00:11:28;8.60;;;4.03;;
76854;SDS011;66343;44.588;33.450;2023-05-23T00:14:06;9.45;;;3.72;;
76854;SDS011;66343;44.588;33.450;2023-05-23T00:16:37;9.93;;;3.83;;
76854;SDS011;66343;44.588;33.450;2023-05-23T00:19:12;8.38;;;4.15;;
76854;SDS011;66343;44.588;33.450;2023-05-23T00:21:48;7.95;;;3.60;;
76854;SDS011;66343;44.588;33.450;2023-05-23T00:24:24;7.95;;;3.53;;
76854;SDS011;66343;44.588;33.450;2023-05-23T00:26:56;8.55;;;3.90;;
76854;SDS011;66343;44.588;33.450;2023-05-23T00:29:27;7.43;;;3.45;;
76854;SDS011;66343;44.588;33.450;2023-05-23T00:31:59;7.95;;;3.60;;
76854;SDS011;66343;44.588;33.450;2023-05-23T00:34:29;7.40;;;3.45;;
76854;SDS011;66343;44.588;33.450;2023-05-23T00:37:06;9.13;;;3.90;;
76854;SDS011;66343;44.588;33.450;2023-05-23T00:39:39;6.97;;;3.53;;
76854;SDS011;66343;44.588;33.450;2023-05-23T00:42:11;6.85;;;3.15;;
76854;SDS011;66343;44.588;33.450;2023-05-23T00:44:46;7.13;;;3.20;;
76854;SDS011;66343;44.588;33.450;2023-05-23T00:47:30;10.55;;;3.80;;
76854;SDS011;66343;44.588;33.450;2023-05-23T00:50:05;8.45;;;3.83;;
76854;SDS011;66343;44.588;33.450;2023-05-23T00:52:40;7.10;;;3.17;;
76854;SDS011;66343;44.588;33.450;2023-05-23T00:55:16;9.05;;;3.70;;
76854;SDS011;66343;44.588;33.450;2023-05-23T00:57:48;7.22;;;3.83;;
76854;SDS011;66343;44.588;33.450;2023-05-23T01:00:24;8.65;;;3.83;;
76854;SDS011;66343;44.588;33.450;2023-05-23T01:03:00;8.05;;;3.50;;
76854;SDS011;66343;44.588;33.450;2023-05-23T01:05:31;8.05;;;3.70;;
76854;SDS011;66343;44.588;33.450;2023-05-23T01:08:03;7.95;;;3.58;;
76854;SDS011;66343;44.588;33.450;2023-05-23T01:10:36;9.02;;;3.90;;
76854;SDS011;66343;44.588;33.450;2023-05-23T01:13:12;7.97;;;4.05;;
76854;SDS011;66343;44.588;33.450;2023-05-23T01:19:46;7.13;;;3.58;;
76854;SDS011;66343;44.588;33.450;2023-05-23T01:22:48;8.45;;;3.65;;
76854;SDS011;66343;44.588;33.450;2023-05-23T01:25:50;8.88;;;3.60;;
76854;SDS011;66343;44.588;33.450;2023-05-23T01:28:49;8.25;;;3.80;;
76854;SDS011;66343;44.588;33.450;2023-05-23T01:31:27;7.88;;;3.63;;
76854;SDS011;66343;44.588;33.450;2023-05-23T01:34:05;8.68;;;4.28;;
76854;SDS011;66343;44.588;33.450;2023-05-23T01:36:39;7.80;;;4.07;;
76854;SDS011;66343;44.588;33.450;2023-05-23T01:39:13;10.23;;;4.20;;
76854;SDS011;66343;44.588;33.450;2023-05-23T01:41:45;8.23;;;3.50;;
76854;SDS011;66343;44.588;33.450;2023-05-23T01:46:54;8.70;;;4.22;;
76854;SDS011;66343;44.588;33.450;2023-05-23T01:49:25;8.43;;;4.10;;
76854;SDS011;66343;44.588;33.450;2023-05-23T01:52:02;7.68;;;3.65;;
76854;SDS011;66343;44.588;33.450;2023-05-23T01:54:41;10.00;;;4.15;;
76854;SDS011;66343;44.588;33.450;2023-05-23T01:57:13;8.02;;;3.92;;
76854;SDS011;66343;44.588;33.450;2023-05-23T01:59:49;9.27;;;3.95;;
76854;SDS011;66343;44.588;33.450;2023-05-23T02:02:28;8.88;;;4.18;;
76854;SDS011;66343;44.588;33.450;2023-05-23T02:05:08;9.05;;;4.65;;
76854;SDS011;66343;44.588;33.450;2023-05-23T02:07:43;8.32;;;3.80;;
76854;SDS011;66343;44.588;33.450;2023-05-23T02:10:16;9.45;;;3.85;;
76854;SDS011;66343;44.588;33.450;2023-05-23T02:12:51;9.20;;;3.95;;
76854;SDS011;66343;44.588;33.450;2023-05-23T02:15:24;7.88;;;3.88;;
76854;SDS011;66343;44.588;33.450;2023-05-23T02:20:40;8.60;;;4.32;;
76854;SDS011;66343;44.588;33.450;2023-05-23T02:23:10;10.45;;;3.83;;
76854;SDS011;66343;44.588;33.450;2023-05-23T02:25:39;11.27;;;4.40;;
76854;SDS011;66343;44.588;33.450;2023-05-23T02:28:17;8.98;;;4.10;;
76854;SDS011;66343;44.588;33.450;2023-05-23T02:30:56;8.43;;;4.40;;
76854;SDS011;66343;44.588;33.450;2023-05-23T02:33:29;9.65;;;4.55;;
76854;SDS011;66343;44.588;33.450;2023-05-23T02:36:04;9.35;;;4.40;;
76854;SDS011;66343;44.588;33.450;2023-05-23T02:38:37;8.38;;;3.95;;
76854;SDS011;66343;44.588;33.450;2023-05-23T02:41:08;8.90;;;4.40;;
76854;SDS011;66343;44.588;33.450;2023-05-23T02:43:47;8.80;;;4.60;;
76854;SDS011;66343;44.588;33.450;2023-05-23T02:46:20;8.95;;;4.25;;
76854;SDS011;66343;44.588;33.450;2023-05-23T02:48:52;9.32;;;4.32;;
76854;SDS011;66343;44.588;33.450;2023-05-23T02:51:32;9.63;;;4.28;;
76854;SDS011;66343;44.588;33.450;2023-05-23T02:54:08;12.65;;;4.68;;
76854;SDS011;66343;44.588;33.450;2023-05-23T02:56:40;10.32;;;4.75;;
76854;SDS011;66343;44.588;33.450;2023-05-23T02:59:14;10.55;;;4.32;;
76854;SDS011;66343;44.588;33.450;2023-05-23T03:01:52;8.90;;;4.60;;
76854;SDS011;66343;44.588;33.450;2023-05-23T03:04:24;9.73;;;4.43;;
76854;SDS011;66343;44.588;33.450;2023-05-23T03:06:54;10.27;;;4.90;;
76854;SDS011;66343;44.588;33.450;2023-05-23T03:09:29;9.30;;;4.43;;
76854;SDS011;66343;44.588;33.450;2023-05-23T03:12:09;10.57;;;5.10;;
76854;SDS011;66343;44.588;33.450;2023-05-23T03:14:40;10.93;;;4.82;;
76854;SDS011;66343;44.588;33.450;2023-05-23T03:17:15;8.88;;;4.47;;
76854;SDS011;66343;44.588;33.450;2023-05-23T03:19:47;9.68;;;4.85;;
76854;SDS011;66343;44.588;33.450;2023-05-23T03:22:24;12.38;;;5.60;;
76854;SDS011;66343;44.588;33.450;2023-05-23T03:24:59;9.95;;;4.78;;
76854;SDS011;66343;44.588;33.450;2023-05-23T03:27:37;11.75;;;4.80;;
76854;SDS011;66343;44.588;33.450;2023-05-23T03:30:16;9.45;;;4.53;;
76854;SDS011;66343;44.588;33.450;2023-05-23T03:32:47;8.90;;;4.38;;
76854;SDS011;66343;44.588;33.450;2023-05-23T03:35:21;9.57;;;4.43;;
76854;SDS011;66343;44.588;33.450;2023-05-23T03:37:57;10.73;;;4.70;;
76854;SDS011;66343;44.588;33.450;2023-05-23T03:40:30;10.57;;;4.57;;
76854;SDS011;66343;44.588;33.450;2023-05-23T03:43:01;11.50;;;5.18;;
76854;SDS011;66343;44.588;33.450;2023-05-23T03:45:47;8.63;;;4.97;;
76854;SDS011;66343;44.588;33.450;2023-05-23T03:48:19;9.95;;;4.70;;
76854;SDS011;66343;44.588;33.450;2023-05-23T03:50:52;10.18;;;5.10;;
76854;SDS011;66343;44.588;33.450;2023-05-23T03:53:25;9.93;;;5.38;;
76854;SDS011;66343;44.588;33.450;2023-05-23T03:55:58;12.13;;;5.35;;
76854;SDS011;66343;44.588;33.450;2023-05-23T03:58:32;10.07;;;5.30;;
76854;SDS011;66343;44.588;33.450;2023-05-23T04:01:09;10.73;;;4.88;;
76854;SDS011;66343;44.588;33.450;2023-05-23T04:03:57;15.50;;;6.05;;
76854;SDS011;66343;44.588;33.450;2023-05-23T04:06:39;12.10;;;5.13;;
76854;SDS011;66343;44.588;33.450;2023-05-23T04:09:16;11.43;;;5.70;;
76854;SDS011;66343;44.588;33.450;2023-05-23T04:11:57;12.63;;;5.80;;
76854;SDS011;66343;44.588;33.450;2023-05-23T04:14:31;12.07;;;4.93;;
76854;SDS011;66343;44.588;33.450;2023-05-23T04:17:02;11.68;;;5.30;;
76854;SDS011;66343;44.588;33.450;2023-05-23T04:19:40;11.57;;;5.60;;
76854;SDS011;66343;44.588;33.450;2023-05-23T04:22:17;11.25;;;5.45;;
76854;SDS011;66343;44.588;33.450;2023-05-23T04:24:48;11.48;;;5.75;;
76854;SDS011;66343;44.588;33.450;2023-05-23T04:27:20;12.90;;;5.68;;
76854;SDS011;66343;44.588;33.450;2023-05-23T04:29:54;10.75;;;4.97;;
76854;SDS011;66343;44.588;33.450;2023-05-23T04:32:28;11.10;;;5.68;;
76854;SDS011;66343;44.588;33.450;2023-05-23T04:35:03;11.68;;;5.75;;
76854;SDS011;66343;44.588;33.450;2023-05-23T04:37:42;12.85;;;6.18;;
76854;SDS011;66343;44.588;33.450;2023-05-23T04:40:19;10.40;;;5.47;;
76854;SDS011;66343;44.588;33.450;2023-05-23T04:43:24;11.48;;;5.63;;
76854;SDS011;66343;44.588;33.450;2023-05-23T04:46:02;12.00;;;6.05;;
76854;SDS011;66343;44.588;33.450;2023-05-23T04:48:37;11.57;;;5.65;;
76854;SDS011;66343;44.588;33.450;2023-05-23T04:51:21;8.68;;;4.82;;
76854;SDS011;66343;44.588;33.450;2023-05-23T04:54:00;12.65;;;5.82;;
76854;SDS011;66343;44.588;33.450;2023-05-23T04:56:32;10.63;;;5.45;;
76854;SDS011;66343;44.588;33.450;2023-05-23T04:59:08;10.52;;;5.75;;
76854;SDS011;66343;44.588;33.450;2023-05-23T05:01:46;9.23;;;5.22;;
76854;SDS011;66343;44.588;33.450;2023-05-23T05:04:20;10.63;;;5.20;;
76854;SDS011;66343;44.588;33.450;2023-05-23T05:09:29;10.63;;;5.43;;
76854;SDS011;66343;44.588;33.450;2023-05-23T05:12:03;11.95;;;5.53;;
76854;SDS011;66343;44.588;33.450;2023-05-23T05:14:39;19.23;;;6.47;;
76854;SDS011;66343;44.588;33.450;2023-05-23T05:17:12;10.80;;;5.63;;
76854;SDS011;66343;44.588;33.450;2023-05-23T05:20:01;11.60;;;5.82;;
76854;SDS011;66343;44.588;33.450;2023-05-23T05:22:42;11.13;;;5.70;;
76854;SDS011;66343;44.588;33.450;2023-05-23T05:25:20;9.82;;;5.32;;
76854;SDS011;66343;44.588;33.450;2023-05-23T05:27:56;10.93;;;5.80;;
76854;SDS011;66343;44.588;33.450;2023-05-23T05:30:43;13.65;;;6.13;;
76854;SDS011;66343;44.588;33.450;2023-05-23T05:33:16;12.23;;;5.93;;
76854;SDS011;66343;44.588;33.450;2023-05-23T05:35:47;12.32;;;5.63;;
76854;SDS011;66343;44.588;33.450;2023-05-23T05:38:22;16.00;;;6.80;;
76854;SDS011;66343;44.588;33.450;2023-05-23T05:40:54;9.95;;;5.68;;
76854;SDS011;66343;44.588;33.450;2023-05-23T05:43:29;9.93;;;5.28;;
76854;SDS011;66343;44.588;33.450;2023-05-23T05:46:02;11.77;;;6.45;;
76854;SDS011;66343;44.588;33.450;2023-05-23T05:48:35;10.52;;;6.03;;
76854;SDS011;66343;44.588;33.450;2023-05-23T05:51:11;14.48;;;6.40;;
76854;SDS011;66343;44.588;33.450;2023-05-23T05:53:45;11.90;;;7.03;;
76854;SDS011;66343;44.588;33.450;2023-05-23T05:56:19;14.48;;;6.38;;
76854;SDS011;66343;44.588;33.450;2023-05-23T05:58:55;12.30;;;6.22;;
76854;SDS011;66343;44.588;33.450;2023-05-23T06:01:26;12.25;;;6.45;;
76854;SDS011;66343;44.588;33.450;2023-05-23T06:03:59;11.18;;;6.10;;
76854;SDS011;66343;44.588;33.450;2023-05-23T06:06:31;11.27;;;6.13;;
76854;SDS011;66343;44.588;33.450;2023-05-23T06:09:06;14.30;;;7.32;;
76854;SDS011;66343;44.588;33.450;2023-05-23T06:11:40;13.18;;;6.78;;
76854;SDS011;66343;44.588;33.450;2023-05-23T06:14:18;12.23;;;6.68;;
76854;SDS011;66343;44.588;33.450;2023-05-23T06:16:48;12.25;;;6.40;;
76854;SDS011;66343;44.588;33.450;2023-05-23T06:19:25;12.35;;;7.50;;
76854;SDS011;66343;44.588;33.450;2023-05-23T06:21:58;12.57;;;7.85;;
76854;SDS011;66343;44.588;33.450;2023-05-23T06:24:36;12.32;;;7.15;;
76854;SDS011;66343;44.588;33.450;2023-05-23T06:27:10;12.35;;;7.80;;
76854;SDS011;66343;44.588;33.450;2023-05-23T06:29:43;13.02;;;6.75;;
76854;SDS011;66343;44.588;33.450;2023-05-23T06:32:17;13.82;;;7.05;;
76854;SDS011;66343;44.588;33.450;2023-05-23T06:34:54;11.45;;;7.25;;
76854;SDS011;66343;44.588;33.450;2023-05-23T06:37:24;12.10;;;7.05;;
76854;SDS011;66343;44.588;33.450;2023-05-23T06:39:54;12.10;;;6.53;;
76854;SDS011;66343;44.588;33.450;2023-05-23T06:42:30;14.60;;;7.65;;
76854;SDS011;66343;44.588;33.450;2023-05-23T06:45:19;14.55;;;7.43;;
76854;SDS011;66343;44.588;33.450;2023-05-23T06:47:50;12.48;;;8.02;;
76854;SDS011;66343;44.588;33.450;2023-05-23T06:50:27;15.82;;;8.00;;
76854;SDS011;66343;44.588;33.450;2023-05-23T06:53:03;14.25;;;7.93;;
76854;SDS011;66343;44.588;33.450;2023-05-23T06:55:34;13.98;;;7.00;;
76854;SDS011;66343;44.588;33.450;2023-05-23T06:58:11;14.32;;;7.43;;
76854;SDS011;66343;44.588;33.450;2023-05-23T07:00:44;14.07;;;7.07;;
76854;SDS011;66343;44.588;33.450;2023-05-23T07:03:30;13.90;;;7.97;;
76854;SDS011;66343;44.588;33.450;2023-05-23T07:06:08;16.80;;;8.68;;
76854;SDS011;66343;44.588;33.450;2023-05-23T07:08:42;12.85;;;6.28;;
76854;SDS011;66343;44.588;33.450;2023-05-23T07:11:15;10.40;;;5.30;;
76854;SDS011;66343;44.588;33.450;2023-05-23T07:13:57;12.82;;;7.20;;
76854;SDS011;66343;44.588;33.450;2023-05-23T07:16:42;13.70;;;8.25;;
76854;SDS011;66343;44.588;33.450;2023-05-23T07:19:14;14.77;;;8.68;;
76854;SDS011;66343;44.588;33.450;2023-05-23T07:21:48;12.35;;;6.68;;
76854;SDS011;66343;44.588;33.450;2023-05-23T07:24:19;11.30;;;6.20;;
76854;SDS011;66343;44.588;33.450;2023-05-23T07:26:58;10.80;;;6.65;;
76854;SDS011;66343;44.588;33.450;2023-05-23T07:29:37;9.60;;;5.88;;
76854;SDS011;66343;44.588;33.450;2023-05-23T07:32:13;11.43;;;6.18;;
76854;SDS011;66343;44.588;33.450;2023-05-23T07:34:46;12.13;;;7.78;;
76854;SDS011;66343;44.588;33.450;2023-05-23T07:37:16;11.27;;;6.05;;
76854;SDS011;66343;44.588;33.450;2023-05-23T07:39:49;11.80;;;6.57;;
76854;SDS011;66343;44.588;33.450;2023-05-23T07:42:24;22.58;;;7.60;;
76854;SDS011;66343;44.588;33.450;2023-05-23T07:44:58;24.52;;;8.02;;
76854;SDS011;66343;44.588;33.450;2023-05-23T07:47:33;14.05;;;6.78;;
76854;SDS011;66343;44.588;33.450;2023-05-23T07:50:06;14.40;;;6.85;;
76854;SDS011;66343;44.588;33.450;2023-05-23T07:52:40;16.13;;;6.57;;
76854;SDS011;66343;44.588;33.450;2023-05-23T07:55:21;12.75;;;6.10;;
76854;SDS011;66343;44.588;33.450;2023-05-23T07:57:55;11.88;;;6.63;;
76854;SDS011;66343;44.588;33.450;2023-05-23T08:00:28;12.18;;;6.63;;
76854;SDS011;66343;44.588;33.450;2023-05-23T08:03:11;13.70;;;6.82;;
76854;SDS011;66343;44.588;33.450;2023-05-23T08:05:57;16.95;;;7.45;;
76854;SDS011;66343;44.588;33.450;2023-05-23T08:08:34;11.40;;;6.85;;
76854;SDS011;66343;44.588;33.450;2023-05-23T08:11:11;20.73;;;7.43;;
76854;SDS011;66343;44.588;33.450;2023-05-23T08:13:49;19.58;;;6.80;;
76854;SDS011;66343;44.588;33.450;2023-05-23T08:16:39;13.60;;;6.20;;
76854;SDS011;66343;44.588;33.450;2023-05-23T08:19:25;15.23;;;6.10;;
76854;SDS011;66343;44.588;33.450;2023-05-23T08:21:55;12.82;;;6.13;;
76854;SDS011;66343;44.588;33.450;2023-05-23T08:24:25;13.10;;;6.50;;
76854;SDS011;66343;44.588;33.450;2023-05-23T08:27:01;13.90;;;6.03;;
76854;SDS011;66343;44.588;33.450;2023-05-23T08:29:37;9.70;;;5.22;;
76854;SDS011;66343;44.588;33.450;2023-05-23T08:32:14;9.82;;;5.35;;
76854;SDS011;66343;44.588;33.450;2023-05-23T08:34:50;22.88;;;6.50;;
76854;SDS011;66343;44.588;33.450;2023-05-23T08:37:30;9.45;;;5.32;;
76854;SDS011;66343;44.588;33.450;2023-05-23T08:40:08;8.52;;;4.70;;
76854;SDS011;66343;44.588;33.450;2023-05-23T08:43:05;10.60;;;5.40;;
76854;SDS011;66343;44.588;33.450;2023-05-23T08:45:36;9.65;;;5.07;;
76854;SDS011;66343;44.588;33.450;2023-05-23T08:48:12;10.60;;;5.15;;
76854;SDS011;66343;44.588;33.450;2023-05-23T08:50:55;10.38;;;5.60;;
76854;SDS011;66343;44.588;33.450;2023-05-23T08:53:34;11.52;;;5.05;;
76854;SDS011;66343;44.588;33.450;2023-05-23T08:56:12;10.48;;;5.20;;
76854;SDS011;66343;44.588;33.450;2023-05-23T08:58:53;11.00;;;5.20;;
76854;SDS011;66343;44.588;33.450;2023-05-23T09:01:28;10.65;;;5.25;;
76854;SDS011;66343;44.588;33.450;2023-05-23T09:04:06;9.75;;;4.70;;
76854;SDS011;66343;44.588;33.450;2023-05-23T09:09:26;11.70;;;5.18;;
76854;SDS011;66343;44.588;33.450;2023-05-23T09:12:06;10.43;;;5.47;;
76854;SDS011;66343;44.588;33.450;2023-05-23T09:14:45;9.27;;;4.78;;
76854;SDS011;66343;44.588;33.450;2023-05-23T09:17:18;8.57;;;4.28;;
76854;SDS011;66343;44.588;33.450;2023-05-23T09:19:57;11.13;;;5.50;;
76854;SDS011;66343;44.588;33.450;2023-05-23T09:22:46;11.70;;;5.90;;
76854;SDS011;66343;44.588;33.450;2023-05-23T09:25:21;10.57;;;6.40;;
76854;SDS011;66343;44.588;33.450;2023-05-23T09:27:55;10.43;;;6.15;;
76854;SDS011;66343;44.588;33.450;2023-05-23T09:30:32;10.38;;;6.20;;
76854;SDS011;66343;44.588;33.450;2023-05-23T09:33:03;11.48;;;6.40;;
76854;SDS011;66343;44.588;33.450;2023-05-23T09:35:46;11.95;;;7.65;;
76854;SDS011;66343;44.588;33.450;2023-05-23T09:38:23;13.07;;;7.68;;
76854;SDS011;66343;44.588;33.450;2023-05-23T09:40:56;13.68;;;8.10;;
76854;SDS011;66343;44.588;33.450;2023-05-23T09:43:27;12.27;;;7.63;;
76854;SDS011;66343;44.588;33.450;2023-05-23T09:46:08;15.10;;;8.43;;
76854;SDS011;66343;44.588;33.450;2023-05-23T09:48:39;12.45;;;7.60;;
76854;SDS011;66343;44.588;33.450;2023-05-23T09:51:20;12.95;;;7.60;;
76854;SDS011;66343;44.588;33.450;2023-05-23T09:53:55;16.25;;;7.85;;
76854;SDS011;66343;44.588;33.450;2023-05-23T09:58:57;13.05;;;7.50;;
76854;SDS011;66343;44.588;33.450;2023-05-23T10:01:34;13.40;;;7.78;;
76854;SDS011;66343;44.588;33.450;2023-05-23T10:04:14;11.63;;;6.78;;
76854;SDS011;66343;44.588;33.450;2023-05-23T10:06:56;11.15;;;6.43;;
76854;SDS011;66343;44.588;33.450;2023-05-23T10:09:32;12.23;;;6.50;;
76854;SDS011;66343;44.588;33.450;2023-05-23T10:15:14;14.65;;;6.85;;
76854;SDS011;66343;44.588;33.450;2023-05-23T10:20:29;10.82;;;5.78;;
76854;SDS011;66343;44.588;33.450;2023-05-23T10:23:09;9.98;;;5.40;;
76854;SDS011;66343;44.588;33.450;2023-05-23T10:25:43;12.25;;;5.47;;
76854;SDS011;66343;44.588;33.450;2023-05-23T10:28:17;9.20;;;4.38;;
76854;SDS011;66343;44.588;33.450;2023-05-23T10:30:53;9.77;;;3.90;;
76854;SDS011;66343;44.588;33.450;2023-05-23T10:33:23;10.57;;;5.30;;
76854;SDS011;66343;44.588;33.450;2023-05-23T10:36:01;10.63;;;4.40;;
76854;SDS011;66343;44.588;33.450;2023-05-23T10:38:43;9.82;;;4.28;;
76854;SDS011;66343;44.588;33.450;2023-05-23T10:41:33;9.85;;;5.03;;
76854;SDS011;66343;44.588;33.450;2023-05-23T10:44:19;9.15;;;4.95;;
76854;SDS011;66343;44.588;33.450;2023-05-23T10:46:56;10.02;;;5.32;;
76854;SDS011;66343;44.588;33.450;2023-05-23T10:52:10;10.45;;;5.00;;
76854;SDS011;66343;44.588;33.450;2023-05-23T10:54:47;9.82;;;4.97;;
76854;SDS011;66343;44.588;33.450;2023-05-23T10:57:20;8.95;;;4.60;;
76854;SDS011;66343;44.588;33.450;2023-05-23T10:59:54;8.98;;;5.03;;
76854;SDS011;66343;44.588;33.450;2023-05-23T11:02:29;11.55;;;5.22;;
76854;SDS011;66343;44.588;33.450;2023-05-23T11:05:17;10.20;;;4.97;;
76854;SDS011;66343;44.588;33.450;2023-05-23T11:10:58;9.10;;;4.00;;
76854;SDS011;66343;44.588;33.450;2023-05-23T11:19:24;10.02;;;5.03;;
76854;SDS011;66343;44.588;33.450;2023-05-23T11:22:04;8.02;;;4.70;;
76854;SDS011;66343;44.588;33.450;2023-05-23T11:24:56;12.43;;;5.88;;
76854;SDS011;66343;44.588;33.450;2023-05-23T11:27:30;10.57;;;5.57;;
76854;SDS011;66343;44.588;33.450;2023-05-23T11:30:08;11.32;;;5.40;;
76854;SDS011;66343;44.588;33.450;2023-05-23T11:32:51;9.18;;;5.28;;
76854;SDS011;66343;44.588;33.450;2023-05-23T11:35:25;12.65;;;6.00;;
76854;SDS011;66343;44.588;33.450;2023-05-23T11:37:55;9.55;;;5.88;;
76854;SDS011;66343;44.588;33.450;2023-05-23T11:40:38;12.30;;;6.03;;
76854;SDS011;66343;44.588;33.450;2023-05-23T11:43:12;11.77;;;6.13;;
76854;SDS011;66343;44.588;33.450;2023-05-23T11:45:45;9.73;;;5.85;;
76854;SDS011;66343;44.588;33.450;2023-05-23T11:48:15;8.82;;;5.10;;
76854;SDS011;66343;44.588;33.450;2023-05-23T11:50:52;9.27;;;4.45;;
76854;SDS011;66343;44.588;33.450;2023-05-23T11:53:26;9.82;;;4.53;;
76854;SDS011;66343;44.588;33.450;2023-05-23T11:56:00;8.77;;;4.65;;
76854;SDS011;66343;44.588;33.450;2023-05-23T11:58:36;9.48;;;4.40;;
76854;SDS011;66343;44.588;33.450;2023-05-23T12:01:12;8.32;;;4.53;;
76854;SDS011;66343;44.588;33.450;2023-05-23T12:03:47;8.45;;;4.05;;
76854;SDS011;66343;44.588;33.450;2023-05-23T12:06:48;8.93;;;4.18;;
76854;SDS011;66343;44.588;33.450;2023-05-23T12:09:17;12.55;;;4.78;;
76854;SDS011;66343;44.588;33.450;2023-05-23T12:11:49;9.15;;;3.85;;
76854;SDS011;66343;44.588;33.450;2023-05-23T12:14:22;9.30;;;3.67;;
76854;SDS011;66343;44.588;33.450;2023-05-23T12:16:52;8.07;;;3.85;;
76854;SDS011;66343;44.588;33.450;2023-05-23T12:19:25;8.80;;;3.70;;
76854;SDS011;66343;44.588;33.450;2023-05-23T12:22:08;6.85;;;3.00;;
76854;SDS011;66343;44.588;33.450;2023-05-23T12:24:43;8.55;;;3.50;;
76854;SDS011;66343;44.588;33.450;2023-05-23T12:27:25;9.18;;;4.18;;
76854;SDS011;66343;44.588;33.450;2023-05-23T12:30:15;7.95;;;3.30;;
76854;SDS011;66343;44.588;33.450;2023-05-23T12:32:50;8.73;;;3.53;;
76854;SDS011;66343;44.588;33.450;2023-05-23T12:35:24;6.40;;;3.00;;
76854;SDS011;66343;44.588;33.450;2023-05-23T12:38:04;9.00;;;3.45;;
76854;SDS011;66343;44.588;33.450;2023-05-23T12:40:43;8.32;;;3.63;;
76854;SDS011;66343;44.588;33.450;2023-05-23T12:43:17;7.50;;;3.38;;
76854;SDS011;66343;44.588;33.450;2023-05-23T12:45:49;8.35;;;3.05;;
76854;SDS011;66343;44.588;33.450;2023-05-23T12:48:28;8.32;;;3.63;;
76854;SDS011;66343;44.588;33.450;2023-05-23T12:52:13;7.43;;;3.30;;
76854;SDS011;66343;44.588;33.450;2023-05-23T12:54:46;8.63;;;3.50;;
76854;SDS011;66343;44.588;33.450;2023-05-23T12:57:30;8.55;;;3.55;;
76854;SDS011;66343;44.588;33.450;2023-05-23T13:00:07;7.72;;;3.17;;
76854;SDS011;66343;44.588;33.450;2023-05-23T13:02:39;7.25;;;3.13;;
76854;SDS011;66343;44.588;33.450;2023-05-23T13:05:10;7.82;;;3.72;;
76854;SDS011;66343;44.588;33.450;2023-05-23T13:07:48;7.28;;;3.53;;
76854;SDS011;66343;44.588;33.450;2023-05-23T13:10:25;8.88;;;3.45;;
76854;SDS011;66343;44.588;33.450;2023-05-23T13:15:33;10.55;;;3.67;;
76854;SDS011;66343;44.588;33.450;2023-05-23T13:18:10;7.38;;;3.65;;
76854;SDS011;66343;44.588;33.450;2023-05-23T13:20:46;10.18;;;4.10;;
76854;SDS011;66343;44.588;33.450;2023-05-23T13:23:32;9.88;;;3.50;;
76854;SDS011;66343;44.588;33.450;2023-05-23T13:26:07;9.02;;;4.03;;
76854;SDS011;66343;44.588;33.450;2023-05-23T13:28:43;8.93;;;4.38;;
76854;SDS011;66343;44.588;33.450;2023-05-23T13:31:13;8.07;;;3.67;;
76854;SDS011;66343;44.588;33.450;2023-05-23T13:33:50;9.70;;;3.78;;
76854;SDS011;66343;44.588;33.450;2023-05-23T13:36:25;7.43;;;3.70;;
76854;SDS011;66343;44.588;33.450;2023-05-23T13:38:58;7.00;;;3.58;;
76854;SDS011;66343;44.588;33.450;2023-05-23T13:41:38;8.20;;;4.10;;
76854;SDS011;66343;44.588;33.450;2023-05-23T13:44:10;8.98;;;4.50;;
76854;SDS011;66343;44.588;33.450;2023-05-23T13:46:44;7.63;;;3.53;;
76854;SDS011;66343;44.588;33.450;2023-05-23T13:49:15;7.68;;;3.83;;
76854;SDS011;66343;44.588;33.450;2023-05-23T13:51:47;10.10;;;4.32;;
76854;SDS011;66343;44.588;33.450;2023-05-23T13:54:24;8.23;;;3.97;;
76854;SDS011;66343;44.588;33.450;2023-05-23T13:57:01;10.80;;;4.38;;
76854;SDS011;66343;44.588;33.450;2023-05-23T13:59:37;9.40;;;3.70;;
76854;SDS011;66343;44.588;33.450;2023-05-23T14:02:08;9.10;;;3.75;;
76854;SDS011;66343;44.588;33.450;2023-05-23T14:04:41;9.07;;;4.10;;
76854;SDS011;66343;44.588;33.450;2023-05-23T14:07:17;9.77;;;4.20;;
76854;SDS011;66343;44.588;33.450;2023-05-23T14:09:55;8.50;;;4.63;;
76854;SDS011;66343;44.588;33.450;2023-05-23T14:12:29;8.68;;;4.18;;
76854;SDS011;66343;44.588;33.450;2023-05-23T14:15:04;9.13;;;4.20;;
76854;SDS011;66343;44.588;33.450;2023-05-23T14:17:39;8.75;;;4.45;;
76854;SDS011;66343;44.588;33.450;2023-05-23T14:20:16;10.00;;;4.22;;
76854;SDS011;66343;44.588;33.450;2023-05-23T14:23:05;7.78;;;4.03;;
76854;SDS011;66343;44.588;33.450;2023-05-23T14:25:38;8.52;;;4.22;;
76854;SDS011;66343;44.588;33.450;2023-05-23T14:28:12;9.43;;;4.70;;
76854;SDS011;66343;44.588;33.450;2023-05-23T14:30:51;8.57;;;3.95;;
76854;SDS011;66343;44.588;33.450;2023-05-23T14:33:28;7.78;;;4.50;;
76854;SDS011;66343;44.588;33.450;2023-05-23T14:36:06;9.13;;;4.05;;
76854;SDS011;66343;44.588;33.450;2023-05-23T14:38:41;9.77;;;4.35;;
76854;SDS011;66343;44.588;33.450;2023-05-23T14:41:13;10.20;;;4.45;;
76854;SDS011;66343;44.588;33.450;2023-05-23T14:43:45;7.95;;;4.20;;
76854;SDS011;66343;44.588;33.450;2023-05-23T14:46:24;7.18;;;3.55;;
76854;SDS011;66343;44.588;33.450;2023-05-23T14:48:59;9.55;;;4.60;;
76854;SDS011;66343;44.588;33.450;2023-05-23T14:51:53;9.38;;;3.72;;
76854;SDS011;66343;44.588;33.450;2023-05-23T14:54:30;9.32;;;3.97;;
76854;SDS011;66343;44.588;33.450;2023-05-23T14:57:08;7.03;;;4.22;;
76854;SDS011;66343;44.588;33.450;2023-05-23T14:59:42;9.93;;;4.25;;
76854;SDS011;66343;44.588;33.450;2023-05-23T15:02:12;8.15;;;4.30;;
76854;SDS011;66343;44.588;33.450;2023-05-23T15:04:57;8.35;;;4.22;;
76854;SDS011;66343;44.588;33.450;2023-05-23T15:07:34;8.32;;;3.95;;
76854;SDS011;66343;44.588;33.450;2023-05-23T15:10:07;9.50;;;3.45;;
76854;SDS011;66343;44.588;33.450;2023-05-23T15:12:47;7.85;;;3.90;;
76854;SDS011;66343;44.588;33.450;2023-05-23T15:15:23;9.05;;;3.50;;
76854;SDS011;66343;44.588;33.450;2023-05-23T15:18:00;9.20;;;3.72;;
76854;SDS011;66343;44.588;33.450;2023-05-23T15:20:37;8.57;;;3.63;;
76854;SDS011;66343;44.588;33.450;2023-05-23T15:23:13;10.52;;;3.90;;
76854;SDS011;66343;44.588;33.450;2023-05-23T15:25:48;7.18;;;3.90;;
76854;SDS011;66343;44.588;33.450;2023-05-23T15:28:27;9.23;;;4.07;;
76854;SDS011;66343;44.588;33.450;2023-05-23T15:31:01;7.95;;;3.92;;
76854;SDS011;66343;44.588;33.450;2023-05-23T15:33:40;8.63;;;3.80;;
76854;SDS011;66343;44.588;33.450;2023-05-23T15:36:18;9.93;;;4.22;;
76854;SDS011;66343;44.588;33.450;2023-05-23T15:38:57;8.90;;;4.28;;
76854;SDS011;66343;44.588;33.450;2023-05-23T15:41:28;9.77;;;4.40;;
76854;SDS011;66343;44.588;33.450;2023-05-23T15:44:00;9.27;;;4.65;;
76854;SDS011;66343;44.588;33.450;2023-05-23T15:49:02;9.52;;;5.05;;
76854;SDS011;66343;44.588;33.450;2023-05-23T15:51:54;9.40;;;4.53;;
76854;SDS011;66343;44.588;33.450;2023-05-23T15:54:27;9.43;;;4.40;;
76854;SDS011;66343;44.588;33.450;2023-05-23T15:57:04;12.15;;;4.78;;
76854;SDS011;66343;44.588;33.450;2023-05-23T15:59:38;9.15;;;4.72;;
76854;SDS011;66343;44.588;33.450;2023-05-23T16:02:09;10.80;;;5.38;;